createdAt,value
2022-09-22T00:01:22.264Z,82.14
2022-09-22T00:04:27.623Z,82.05
2022-09-22T00:07:32.938Z,82.03
2022-09-22T00:10:37.827Z,82.04
2022-09-22T00:13:44.303Z,81.80
2022-09-22T00:16:52.565Z,81.78
2022-09-22T00:19:57.634Z,82.04
2022-09-22T00:23:02.854Z,82.37
2022-09-22T00:26:09.012Z,81.69
2022-09-22T00:29:17.678Z,83.36
2022-09-22T00:32:23.870Z,83.74
2022-09-22T00:35:28.844Z,82.81
2022-09-22T00:38:34.242Z,82.25
2022-09-22T00:41:42.157Z,82.84
2022-09-22T00:44:48.072Z,83.01
2022-09-22T00:47:54.667Z,82.90
2022-09-22T00:51:02.797Z,82.19
2022-09-22T00:54:14.986Z,82.92
2022-09-22T00:57:24.202Z,83.45
2022-09-22T01:00:32.049Z,82.90
2022-09-22T01:03:41.264Z,82.41
2022-09-22T01:06:48.572Z,81.88
2022-09-22T01:09:56.459Z,81.98
2022-09-22T01:13:18.309Z,82.54
2022-09-22T01:16:37.321Z,82.35
2022-09-22T01:20:21.334Z,83.14
2022-09-22T01:24:12.564Z,83.20
2022-09-22T01:27:51.224Z,82.38
2022-09-22T01:31:05.444Z,82.47
2022-09-22T01:34:19.881Z,83.42
2022-09-22T01:37:31.994Z,83.19
2022-09-22T01:40:45.963Z,82.79
2022-09-22T01:43:55.445Z,82.79
2022-09-22T01:47:07.415Z,82.35
2022-09-22T01:50:18.272Z,81.71
2022-09-22T01:53:29.149Z,81.91
2022-09-22T01:56:38.481Z,82.17
2022-09-22T01:59:49.847Z,82.02
2022-09-22T02:03:03.900Z,81.90
2022-09-22T02:06:15.157Z,81.61
2022-09-22T02:09:24.451Z,81.81
2022-09-22T02:12:30.967Z,81.97
2022-09-22T02:15:53.719Z,82.22
2022-09-22T02:19:13.301Z,82.39
2022-09-22T02:22:20.515Z,83.13
2022-09-22T02:25:27.184Z,82.69
2022-09-22T02:28:34.681Z,82.53
2022-09-22T02:31:44.012Z,82.79
2022-09-22T02:34:53.565Z,82.86
2022-09-22T02:38:09.235Z,82.38
2022-09-22T02:41:26.175Z,82.79
2022-09-22T02:44:39.160Z,82.76
2022-09-22T02:47:50.798Z,84.56
2022-09-22T02:50:59.919Z,84.70
2022-09-22T02:54:05.898Z,84.37
2022-09-22T02:57:15.114Z,84.20
2022-09-22T03:00:26.424Z,83.50
2022-09-22T03:03:36.148Z,84.05
2022-09-22T03:06:44.958Z,83.09
2022-09-22T03:09:52.221Z,83.13
2022-09-22T03:13:17.837Z,82.72
2022-09-22T03:16:26.108Z,82.85
2022-09-22T03:19:32.073Z,82.48
2022-09-22T03:22:41.551Z,82.64
2022-09-22T03:25:47.853Z,83.18
2022-09-22T03:28:54.246Z,83.80
2022-09-22T03:32:00.680Z,83.86
2022-09-22T03:35:08.213Z,83.18
2022-09-22T03:38:17.423Z,83.66
2022-09-22T03:41:24.941Z,83.02
2022-09-22T03:44:33.859Z,83.13
2022-09-22T03:47:39.942Z,83.10
2022-09-22T03:50:47.713Z,83.27
2022-09-22T03:54:02.947Z,83.09
2022-09-22T03:57:12.330Z,82.77
2022-09-22T04:00:22.497Z,83.08
2022-09-22T04:03:29.603Z,83.13
2022-09-22T04:06:37.983Z,83.86
2022-09-22T04:10:02.948Z,82.99
2022-09-22T04:13:18.179Z,83.43
2022-09-22T04:16:26.576Z,83.74
2022-09-22T04:19:39.087Z,83.16
2022-09-22T04:22:58.945Z,83.02
2022-09-22T04:26:12.353Z,83.28
2022-09-22T04:29:37.080Z,83.10
2022-09-22T04:32:57.726Z,83.19
2022-09-22T04:36:10.985Z,82.65
2022-09-22T04:39:35.906Z,82.46
2022-09-22T04:42:48.782Z,82.67
2022-09-22T04:46:02.505Z,82.93
2022-09-22T04:49:22.550Z,82.68
2022-09-22T04:56:45.467Z,83.56
2022-09-22T05:00:00.773Z,83.67
2022-09-22T05:03:18.637Z,83.46
2022-09-22T05:06:45.620Z,83.84
2022-09-22T05:10:05.918Z,82.76
2022-09-22T05:13:35.836Z,83.20
2022-09-22T05:16:50.468Z,83.19
2022-09-22T05:20:11.221Z,83.71
2022-09-22T05:23:24.990Z,84.40
2022-09-22T05:26:56.330Z,85.28
2022-09-22T05:30:11.210Z,85.65
2022-09-22T05:33:40.355Z,85.25
2022-09-22T05:36:55.604Z,85.03
2022-09-22T05:40:08.686Z,84.67
2022-09-22T05:43:21.271Z,85.94
2022-09-22T05:46:29.650Z,85.01
2022-09-22T05:49:45.513Z,85.34
2022-09-22T05:52:55.688Z,85.49
2022-09-22T05:56:17.578Z,85.91
2022-09-22T05:59:29.553Z,86.05
2022-09-22T06:02:36.595Z,86.62
2022-09-22T06:05:52.012Z,86.51
2022-09-22T06:09:00.368Z,86.64
2022-09-22T06:12:09.465Z,85.27
2022-09-22T06:15:15.664Z,84.82
2022-09-22T06:18:24.776Z,83.94
2022-09-22T06:21:32.700Z,83.44
2022-09-22T06:24:41.377Z,81.85
2022-09-22T06:27:48.101Z,80.54
2022-09-22T06:30:54.300Z,79.04
2022-09-22T06:34:03.201Z,79.86
2022-09-22T06:37:14.706Z,79.68
2022-09-22T06:40:23.259Z,78.79
2022-09-22T06:43:31.905Z,78.86
2022-09-22T06:46:40.144Z,78.62
2022-09-22T06:49:47.742Z,75.17
2022-09-22T06:53:00.584Z,69.73
2022-09-22T06:56:08.279Z,60.29
2022-09-22T06:59:15.204Z,54.60
2022-09-22T07:02:23.167Z,49.32
2022-09-22T07:05:35.773Z,45.16
2022-09-22T07:08:59.516Z,42.76
2022-09-22T07:12:08.456Z,41.61
2022-09-22T07:15:17.713Z,41.87
2022-09-22T07:18:27.742Z,46.62
2022-09-22T07:21:41.413Z,50.25
2022-09-22T07:25:06.516Z,54.37
2022-09-22T07:28:23.806Z,59.20
2022-09-22T07:31:42.911Z,61.51
2022-09-22T07:34:52.162Z,63.63
2022-09-22T07:38:10.797Z,65.92
2022-09-22T07:41:22.619Z,67.63
2022-09-22T07:44:57.030Z,68.69
2022-09-22T07:48:27.053Z,68.73
2022-09-22T07:52:03.151Z,69.79
2022-09-22T07:55:11.918Z,69.96
2022-09-22T07:58:22.073Z,70.42
2022-09-22T08:01:46.069Z,71.46
2022-09-22T08:05:06.018Z,69.41
2022-09-22T08:08:20.813Z,69.57
2022-09-22T08:11:45.803Z,70.43
2022-09-22T08:15:06.454Z,70.12
2022-09-22T08:18:15.938Z,69.80
2022-09-22T08:21:23.165Z,69.39
2022-09-22T08:24:37.764Z,69.54
2022-09-22T08:27:51.955Z,69.73
2022-09-22T08:31:02.085Z,70.43
2022-09-22T08:34:22.251Z,69.44
2022-09-22T08:37:35.845Z,68.39
2022-09-22T08:40:48.798Z,66.15
2022-09-22T08:44:03.315Z,64.59
2022-09-22T08:47:41.649Z,63.34
2022-09-22T08:51:10.412Z,63.81
2022-09-22T08:54:22.231Z,63.21
2022-09-22T08:57:47.745Z,61.18
2022-09-22T09:01:07.506Z,59.32
2022-09-22T09:04:58.272Z,59.29
2022-09-22T09:08:20.031Z,58.02
2022-09-22T09:11:49.978Z,59.52
2022-09-22T09:15:33.767Z,55.95
2022-09-22T09:18:57.980Z,54.95
2022-09-22T09:22:29.234Z,54.22
2022-09-22T09:26:08.888Z,53.16
2022-09-22T09:29:28.355Z,54.88
2022-09-22T09:33:05.461Z,53.95
2022-09-22T09:36:25.608Z,52.59
2022-09-22T09:39:37.537Z,52.83
2022-09-22T09:42:40.166Z,53.27
2022-09-22T09:45:51.247Z,50.75
2022-09-22T09:49:06.509Z,51.16
2022-09-22T09:52:12.604Z,50.63
2022-09-22T09:55:27.021Z,50.47
2022-09-22T09:59:01.979Z,49.52
2022-09-22T10:02:05.561Z,50.09
2022-09-22T10:05:22.341Z,49.43
2022-09-22T10:08:25.001Z,49.21
2022-09-22T10:11:33.612Z,49.66
2022-09-22T10:14:36.369Z,48.57
2022-09-22T10:17:42.134Z,47.83
2022-09-22T10:20:45.198Z,48.58
2022-09-22T10:23:51.173Z,47.02
2022-09-22T10:26:57.306Z,48.21
2022-09-22T10:30:32.921Z,48.27
2022-09-22T10:33:39.375Z,45.51
2022-09-22T10:36:45.816Z,46.65
2022-09-22T10:39:50.710Z,46.63
2022-09-22T10:42:59.170Z,45.04
2022-09-22T10:46:18.879Z,46.20
2022-09-22T10:49:35.083Z,46.18
2022-09-22T10:52:47.536Z,45.61
2022-09-22T10:55:56.682Z,46.33
2022-09-22T10:59:15.458Z,45.81
2022-09-22T11:02:57.029Z,46.51
2022-09-22T11:06:32.709Z,45.35
2022-09-22T11:09:59.069Z,44.84
2022-09-22T11:13:12.691Z,43.77
2022-09-22T11:16:42.692Z,44.20
2022-09-22T11:20:06.841Z,43.54
2022-09-22T11:23:35.115Z,44.96
2022-09-22T11:26:48.154Z,44.68
2022-09-22T11:30:11.360Z,45.21
2022-09-22T11:33:44.586Z,44.58
2022-09-22T11:36:57.337Z,45.70
2022-09-22T11:40:20.928Z,45.00
2022-09-22T11:43:41.826Z,45.38
2022-09-22T11:47:00.958Z,45.51
2022-09-22T11:50:40.447Z,42.50
2022-09-22T11:54:11.103Z,44.04
2022-09-22T11:57:17.205Z,42.72
2022-09-22T12:00:22.123Z,43.35
2022-09-22T12:03:31.677Z,40.97
2022-09-22T12:06:41.264Z,39.69
2022-09-22T12:09:49.369Z,40.62
2022-09-22T12:12:52.985Z,39.64
2022-09-22T12:19:16.602Z,41.49
2022-09-22T12:22:25.573Z,41.68
2022-09-22T12:25:49.031Z,37.65
2022-09-22T12:28:52.395Z,39.25
2022-09-22T12:31:57.290Z,39.07
2022-09-22T12:35:01.425Z,39.08
2022-09-22T12:38:04.909Z,39.37
2022-09-22T12:41:10.122Z,40.23
2022-09-22T12:44:17.204Z,38.55
2022-09-22T12:47:23.142Z,38.97
2022-09-22T12:50:36.909Z,38.81
2022-09-22T12:53:43.104Z,39.17
2022-09-22T12:56:57.611Z,39.74
2022-09-22T13:00:20.628Z,37.67
2022-09-22T13:03:50.087Z,39.50
2022-09-22T13:07:01.849Z,39.76
2022-09-22T13:10:41.312Z,37.76
2022-09-22T13:13:51.538Z,38.05
2022-09-22T13:16:57.679Z,39.76
2022-09-22T13:20:17.251Z,39.08
2022-09-22T13:23:23.627Z,38.99
2022-09-22T13:26:31.837Z,39.13
2022-09-22T13:29:43.016Z,37.21
2022-09-22T13:32:55.864Z,38.63
2022-09-22T13:36:15.825Z,39.87
2022-09-22T13:39:24.969Z,37.95
2022-09-22T13:42:34.399Z,38.15
2022-09-22T13:45:45.212Z,38.33
2022-09-22T13:48:58.457Z,38.08
2022-09-22T13:52:10.990Z,38.51
2022-09-22T13:55:27.937Z,37.79
2022-09-22T13:58:41.475Z,34.89
2022-09-22T14:01:57.446Z,31.24
2022-09-22T14:05:10.082Z,29.38
2022-09-22T14:08:22.501Z,28.73
2022-09-22T14:11:38.491Z,28.60
2022-09-22T14:14:47.523Z,29.42
2022-09-22T14:18:00.360Z,29.51
2022-09-22T14:21:13.771Z,27.44
2022-09-22T14:24:20.990Z,27.98
2022-09-22T14:27:33.679Z,27.33
2022-09-22T14:30:43.319Z,28.55
2022-09-22T14:33:52.176Z,29.22
2022-09-22T14:37:01.988Z,29.63
2022-09-22T14:40:17.981Z,29.91
2022-09-22T14:43:28.470Z,30.49
2022-09-22T14:46:45.257Z,32.43
2022-09-22T14:50:07.909Z,33.60
2022-09-22T14:53:23.011Z,33.54
2022-09-22T14:56:33.441Z,33.84
2022-09-22T14:59:57.231Z,35.53
2022-09-22T15:03:05.788Z,35.99
2022-09-22T15:06:18.757Z,36.68
2022-09-22T15:09:30.659Z,36.18
2022-09-22T15:12:47.415Z,36.70
2022-09-22T15:15:56.347Z,37.32
2022-09-22T15:19:02.840Z,36.63
2022-09-22T15:22:13.185Z,36.03
2022-09-22T15:25:20.579Z,37.15
2022-09-22T15:28:30.123Z,37.17
2022-09-22T15:31:36.353Z,37.45
2022-09-22T15:34:45.527Z,38.52
2022-09-22T15:37:56.210Z,37.66
2022-09-22T15:41:03.082Z,39.37
2022-09-22T15:44:09.005Z,39.02
2022-09-22T15:47:17.352Z,38.38
2022-09-22T15:50:31.549Z,40.48
2022-09-22T15:53:40.349Z,39.01
2022-09-22T15:56:48.483Z,39.35
2022-09-22T15:59:54.606Z,39.59
2022-09-22T16:03:03.218Z,39.88
2022-09-22T16:06:12.877Z,39.46
2022-09-22T16:09:22.319Z,39.47
2022-09-22T16:12:35.665Z,41.19
2022-09-22T16:15:44.242Z,40.49
2022-09-22T16:18:51.057Z,40.58
2022-09-22T16:22:00.603Z,41.68
2022-09-22T16:25:13.538Z,41.35
2022-09-22T16:28:27.586Z,42.03
2022-09-22T16:31:41.395Z,42.79
2022-09-22T16:34:52.922Z,42.75
2022-09-22T16:38:04.696Z,42.93
2022-09-22T16:41:23.846Z,43.03
2022-09-22T16:44:39.767Z,44.08
2022-09-22T16:47:47.876Z,43.59
2022-09-22T16:51:01.192Z,44.25
2022-09-22T16:54:09.545Z,44.85
2022-09-22T16:57:20.173Z,45.05
2022-09-22T17:00:28.652Z,45.12
2022-09-22T17:03:35.495Z,45.72
2022-09-22T17:06:42.448Z,46.25
2022-09-22T17:09:50.249Z,46.53
2022-09-22T17:12:58.692Z,47.41
2022-09-22T17:16:13.421Z,49.41
2022-09-22T17:19:22.303Z,48.82
2022-09-22T17:22:30.915Z,52.21
2022-09-22T17:25:37.143Z,54.78
2022-09-22T17:28:45.862Z,55.91
2022-09-22T17:31:52.246Z,57.07
2022-09-22T17:35:02.226Z,57.62
2022-09-22T17:38:09.841Z,58.98
2022-09-22T17:41:20.439Z,59.63
2022-09-22T17:44:29.878Z,60.07
2022-09-22T17:47:52.835Z,60.73
2022-09-22T17:51:18.575Z,60.79
2022-09-22T17:54:42.598Z,61.04
2022-09-22T17:57:51.949Z,62.08
2022-09-22T18:01:00.662Z,63.19
2022-09-22T18:04:07.225Z,63.10
2022-09-22T18:07:18.443Z,63.97
2022-09-22T18:10:33.389Z,64.09
2022-09-22T18:13:43.744Z,64.14
2022-09-22T18:16:54.247Z,64.58
2022-09-22T18:20:03.649Z,64.89
2022-09-22T18:23:09.738Z,65.08
2022-09-22T18:26:18.848Z,64.85
2022-09-22T18:29:26.604Z,64.86
2022-09-22T18:32:41.528Z,65.11
2022-09-22T18:35:51.700Z,65.66
2022-09-22T18:39:00.803Z,65.13
2022-09-22T18:42:11.864Z,65.95
2022-09-22T18:45:18.871Z,66.12
2022-09-22T18:48:28.441Z,66.85
2022-09-22T18:51:39.085Z,66.79
2022-09-22T18:54:46.378Z,67.23
2022-09-22T18:57:55.506Z,67.26
2022-09-22T19:01:03.006Z,67.15
2022-09-22T19:04:19.052Z,67.81
2022-09-22T19:07:42.964Z,68.00
2022-09-22T19:10:52.300Z,68.30
2022-09-22T19:13:59.268Z,68.41
2022-09-22T19:17:05.555Z,69.25
2022-09-22T19:20:15.810Z,69.78
2022-09-22T19:23:21.972Z,69.88
2022-09-22T19:26:30.229Z,69.80
2022-09-22T19:29:36.758Z,69.98
2022-09-22T19:32:43.325Z,70.37
2022-09-22T19:35:52.515Z,70.58
2022-09-22T19:38:59.680Z,70.38
2022-09-22T19:42:06.668Z,70.75
2022-09-22T19:45:14.200Z,70.74
2022-09-22T19:48:20.971Z,71.33
2022-09-22T19:51:29.026Z,72.03
2022-09-22T19:54:38.263Z,71.99
2022-09-22T19:57:44.455Z,72.19
2022-09-22T20:00:53.225Z,72.26
2022-09-22T20:03:59.899Z,72.18
2022-09-22T20:07:08.223Z,72.23
2022-09-22T20:10:14.841Z,73.08
2022-09-22T20:13:37.740Z,73.03
2022-09-22T20:16:46.680Z,73.01
2022-09-22T20:19:55.814Z,73.21
2022-09-22T20:23:28.554Z,73.12
2022-09-22T20:26:39.225Z,73.41
2022-09-22T20:29:44.980Z,73.30
2022-09-22T20:32:53.369Z,73.81
2022-09-22T20:36:00.785Z,73.59
2022-09-22T20:39:10.959Z,74.24
2022-09-22T20:42:17.250Z,73.92
2022-09-22T20:45:25.151Z,74.08
2022-09-22T20:48:32.004Z,73.81
2022-09-22T20:51:42.282Z,74.37
2022-09-22T20:54:54.696Z,74.69
2022-09-22T20:58:02.543Z,75.06
2022-09-22T21:01:12.494Z,75.53
2022-09-22T21:04:21.362Z,75.79
2022-09-22T21:07:29.893Z,75.18
2022-09-22T21:10:37.927Z,75.30
2022-09-22T21:13:44.560Z,75.95
2022-09-22T21:16:52.160Z,76.15
2022-09-22T21:20:02.340Z,75.86
2022-09-22T21:23:09.923Z,76.55
2022-09-22T21:26:18.071Z,76.81
2022-09-22T21:29:26.208Z,76.61
2022-09-22T21:32:35.565Z,76.30
2022-09-22T21:35:42.018Z,76.70
2022-09-22T21:38:51.836Z,76.96
2022-09-22T21:42:00.809Z,77.12
2022-09-22T21:45:08.117Z,77.17
2022-09-22T21:48:15.976Z,77.49
2022-09-22T21:51:32.507Z,77.44
2022-09-22T21:54:42.502Z,77.58
2022-09-22T21:57:58.653Z,77.56
2022-09-22T22:01:18.116Z,77.89
2022-09-22T22:04:33.474Z,78.42
2022-09-22T22:07:40.862Z,78.90
2022-09-22T22:10:53.414Z,78.14
2022-09-22T22:14:15.374Z,78.86
2022-09-22T22:17:23.906Z,79.35
2022-09-22T22:20:33.150Z,79.16
2022-09-22T22:23:47.380Z,79.28
2022-09-22T22:27:06.865Z,79.31
2022-09-22T22:30:27.581Z,79.44
2022-09-22T22:33:38.582Z,78.90
2022-09-22T22:36:51.436Z,78.83
2022-09-22T22:39:56.454Z,79.15
2022-09-22T22:43:07.323Z,79.14
2022-09-22T22:46:20.377Z,79.43
2022-09-22T22:49:43.175Z,80.10
2022-09-22T22:53:05.966Z,80.34
2022-09-22T22:56:31.756Z,80.41
2022-09-22T22:59:42.135Z,79.92
2022-09-22T23:03:14.243Z,80.45
2022-09-22T23:06:40.737Z,80.43
2022-09-22T23:10:14.034Z,80.53
2022-09-22T23:13:30.755Z,80.49
2022-09-22T23:16:55.860Z,80.47
2022-09-22T23:20:11.458Z,80.54
2022-09-22T23:23:37.191Z,80.41
2022-09-22T23:26:46.202Z,79.71
2022-09-22T23:30:08.703Z,79.97
2022-09-22T23:33:18.273Z,80.37
2022-09-22T23:36:34.547Z,79.89
2022-09-22T23:39:43.362Z,80.09
2022-09-22T23:42:50.398Z,79.67
2022-09-22T23:45:56.599Z,80.05
2022-09-22T23:49:03.223Z,80.42
2022-09-22T23:52:16.442Z,80.15
2022-09-22T23:55:22.890Z,80.13
2022-09-22T23:58:29.167Z,80.65
